Time;durP1;ratioP1;P1;durP2;ratioP2;P2;SDS_P1;SDS_P2;PMS_P1;PMS_P2;Temp;Humidity;BMP_temperature;BMP_pressure;BME280_temperature;BME280_humidity;BME280_pressure;Samples;Min_cycle;Max_cycle;Signal;HPM_P1;HPM_P2
2021/12/14 00:01:56;;;;;;;21.40;14.35;;;;;;;9.50;39.33;100049.72;4346229;32;35057;-88
2021/12/14 00:04:32;;;;;;;20.73;14.15;;;;;;;9.73;38.96;100051.28;4345514;32;33084;-90
2021/12/14 00:07:04;;;;;;;21.83;13.88;;;;;;;9.82;38.58;100049.84;4345381;32;33750;-90
2021/12/14 00:09:36;;;;;;;21.37;13.85;;;;;;;9.87;38.33;100053.44;4343909;32;34824;-90
2021/12/14 00:12:44;;;;;;;21.67;15.73;;;;;;;9.72;38.14;100051.25;4346001;32;34920;-90
2021/12/14 00:15:14;;;;;;;24.50;14.70;;;;;;;9.73;38.03;100050.41;4333746;32;31979;-90
2021/12/14 00:17:46;;;;;;;21.12;13.98;;;;;;;9.44;38.69;100042.66;4360840;32;33825;-92
2021/12/14 00:20:37;;;;;;;20.37;13.65;;;;;;;9.48;38.58;100054.00;4344567;33;34752;-91
2021/12/14 00:25:46;;;;;;;21.23;15.00;;;;;;;9.49;38.25;100060.91;4360245;32;33877;-91
2021/12/14 00:28:21;;;;;;;22.42;14.10;;;;;;;9.14;38.51;100058.09;4342670;32;33467;-90
2021/12/14 00:30:50;;;;;;;22.95;14.43;;;;;;;9.02;38.88;100057.69;4359835;32;33894;-90
2021/12/14 00:33:22;;;;;;;25.52;15.02;;;;;;;9.33;38.53;100056.09;4359988;32;34937;-90
2021/12/14 00:35:50;;;;;;;20.73;15.00;;;;;;;9.33;38.24;100058.69;4360128;32;35050;-92
2021/12/14 00:38:21;;;;;;;20.95;14.45;;;;;;;9.20;38.43;100058.25;4347590;32;34116;-92
2021/12/14 00:40:57;;;;;;;21.60;14.00;;;;;;;9.21;38.54;100056.59;4347780;32;34080;-90
2021/12/14 00:43:25;;;;;;;19.53;13.67;;;;;;;9.58;37.77;100055.13;4358142;32;35116;-91
2021/12/14 00:45:54;;;;;;;19.20;13.13;;;;;;;9.54;38.04;100061.94;4347767;32;32692;-91
2021/12/14 00:48:22;;;;;;;20.73;13.10;;;;;;;9.50;38.10;100063.53;4361048;32;34416;-92
2021/12/14 00:50:53;;;;;;;20.88;13.95;;;;;;;9.58;37.31;100065.50;4360237;32;33862;-92
2021/12/14 00:53:22;;;;;;;24.77;14.90;;;;;;;9.29;37.99;100064.59;4346637;32;34002;-91
2021/12/14 00:55:52;;;;;;;23.02;14.55;;;;;;;9.09;38.78;100080.34;4344147;32;34571;-89
2021/12/14 00:58:20;;;;;;;20.48;14.43;;;;;;;9.10;39.22;100087.28;4346882;32;34421;-88
2021/12/14 01:00:55;;;;;;;21.15;13.57;;;;;;;9.30;38.65;100071.50;4360204;32;32725;-87
2021/12/14 01:03:24;;;;;;;20.02;13.50;;;;;;;9.37;38.24;100066.59;4354274;32;34002;-88
2021/12/14 01:05:54;;;;;;;21.67;14.13;;;;;;;9.42;38.13;100064.13;4333327;33;34386;-88
2021/12/14 01:08:25;;;;;;;19.45;13.40;;;;;;;9.16;38.23;100068.47;4359432;32;33680;-87
2021/12/14 01:11:06;;;;;;;21.08;14.13;;;;;;;9.28;38.04;100066.31;4332983;33;34087;-87
2021/12/14 01:13:41;;;;;;;25.98;13.82;;;;;;;9.17;38.36;100070.25;4340885;32;34199;-90
2021/12/14 01:16:19;;;;;;;21.00;14.43;;;;;;;9.09;38.46;100075.16;4360804;32;33555;-89
2021/12/14 01:19:00;;;;;;;19.87;13.80;;;;;;;9.15;38.53;100074.47;4360595;32;33257;-89
2021/12/14 01:24:09;;;;;;;24.15;15.35;;;;;;;9.18;38.43;100074.59;4347992;32;34076;-89
2021/12/14 01:26:40;;;;;;;21.25;14.38;;;;;;;8.90;39.09;100084.03;4335177;32;32200;-88
2021/12/14 01:29:09;;;;;;;22.02;15.10;;;;;;;9.13;38.57;100077.03;4360520;32;34902;-91
2021/12/14 01:31:40;;;;;;;22.62;14.52;;;;;;;8.72;39.37;100086.84;4322397;33;34156;-87
2021/12/14 01:34:13;;;;;;;23.35;15.02;;;;;;;8.67;39.56;100082.31;4356326;32;34803;-89
2021/12/14 01:36:45;;;;;;;22.75;14.60;;;;;;;8.99;39.21;100084.31;4347770;32;33553;-88
2021/12/14 01:42:24;;;;;;;22.42;14.10;;;;;;;9.20;37.97;100073.78;4360952;32;35057;-90
2021/12/14 01:44:57;;;;;;;20.08;13.57;;;;;;;9.07;38.16;100069.06;4346825;32;32736;-89
2021/12/14 01:47:32;;;;;;;21.48;14.57;;;;;;;9.19;38.10;100074.63;4347865;32;33753;-89
2021/12/14 01:50:02;;;;;;;23.00;14.02;;;;;;;8.95;38.88;100084.16;4357621;32;33885;-89
2021/12/14 01:52:32;;;;;;;21.25;13.75;;;;;;;9.05;38.53;100080.16;4360715;32;34838;-90
2021/12/14 01:55:08;;;;;;;21.77;14.65;;;;;;;9.05;38.76;100077.56;4358343;32;34055;-90
2021/12/14 01:57:36;;;;;;;24.95;15.20;;;;;;;8.78;39.16;100068.06;4347385;32;33870;-89
2021/12/14 02:00:08;;;;;;;22.50;14.70;;;;;;;8.91;39.17;100070.25;4347046;32;34750;-90
2021/12/14 02:02:42;;;;;;;23.20;15.35;;;;;;;8.95;38.89;100071.25;4347399;32;33797;-89
2021/12/14 02:05:27;;;;;;;21.90;13.90;;;;;;;9.00;38.90;100070.53;4345593;32;33909;-91
2021/12/14 02:07:58;;;;;;;25.02;16.05;;;;;;;8.80;39.42;100070.72;4347190;32;33374;-90
2021/12/14 02:10:37;;;;;;;24.80;14.27;;;;;;;8.82;39.07;100079.38;4347009;32;34290;-90
2021/12/14 02:13:05;;;;;;;20.15;13.43;;;;;;;9.14;38.42;100068.44;4360857;32;34987;-88
2021/12/14 02:15:37;;;;;;;22.13;14.48;;;;;;;9.43;37.72;100065.88;4357810;32;33769;-89
2021/12/14 02:18:19;;;;;;;22.13;13.85;;;;;;;9.32;37.49;100070.75;4335244;32;33048;-90
2021/12/14 02:20:56;;;;;;;21.77;15.13;;;;;;;8.96;38.31;100067.81;4334451;32;34747;-89
2021/12/14 02:23:24;;;;;;;23.20;15.50;;;;;;;9.02;38.59;100070.63;4360103;32;35597;-88
2021/12/14 02:25:54;;;;;;;20.30;14.38;;;;;;;8.80;38.85;100071.59;4358077;32;34316;-90
2021/12/14 02:28:22;;;;;;;21.10;14.55;;;;;;;8.77;38.73;100068.91;4346082;32;32981;-90
2021/12/14 02:30:52;;;;;;;20.95;13.55;;;;;;;8.71;39.03;100071.25;4346736;32;34770;-90
2021/12/14 02:33:29;;;;;;;22.00;13.30;;;;;;;8.73;38.86;100069.62;4331697;33;33345;-91
2021/12/14 02:35:58;;;;;;;20.35;13.70;;;;;;;8.74;39.01;100074.84;4359000;32;34969;-89
2021/12/14 02:38:26;;;;;;;20.25;12.98;;;;;;;8.86;38.73;100073.50;4359776;32;34611;-88
2021/12/14 02:40:57;;;;;;;18.58;12.68;;;;;;;9.07;38.40;100081.13;4347555;32;33930;-90
2021/12/14 02:43:40;;;;;;;21.08;13.75;;;;;;;8.72;38.68;100079.09;4346541;32;33985;-89
2021/12/14 02:46:11;;;;;;;20.70;13.82;;;;;;;8.70;38.69;100080.72;4360690;32;35017;-88
2021/12/14 02:48:43;;;;;;;18.27;12.60;;;;;;;8.98;38.30;100076.53;4360417;32;34617;-89
2021/12/14 02:51:25;;;;;;;19.42;12.23;;;;;;;9.01;38.19;100077.47;4347206;32;34663;-87
2021/12/14 02:53:56;;;;;;;17.42;12.35;;;;;;;8.95;38.17;100076.41;4345869;32;34128;-89
2021/12/14 02:56:26;;;;;;;16.75;11.85;;;;;;;8.97;38.16;100077.31;4360330;32;34138;-90
2021/12/14 02:59:15;;;;;;;18.52;11.82;;;;;;;9.27;37.38;100073.16;4346646;32;33572;-90
2021/12/14 03:01:45;;;;;;;17.20;12.57;;;;;;;8.72;38.51;100073.03;4346420;32;34746;-90
2021/12/14 03:04:13;;;;;;;21.70;13.57;;;;;;;8.59;39.09;100074.31;4359345;32;34314;-91
2021/12/14 03:06:48;;;;;;;21.00;13.40;;;;;;;8.81;38.72;100072.47;4334981;32;33363;-89
2021/12/14 03:09:35;;;;;;;18.27;12.88;;;;;;;8.73;38.56;100064.44;4347292;32;33982;-90
2021/12/14 03:12:04;;;;;;;;;;;;;;;8.80;38.58;100073.31;4348507;32;33754;-89
2021/12/14 03:14:32;;;;;;;19.33;13.10;;;;;;;8.68;38.53;100069.47;4344853;32;35394;-89
2021/12/14 03:17:00;;;;;;;19.35;13.43;;;;;;;8.86;37.94;100061.44;4347269;32;34208;-89
2021/12/14 03:19:28;;;;;;;22.67;14.40;;;;;;;8.84;37.82;100063.13;4359603;32;33793;-88
2021/12/14 03:21:56;;;;;;;20.50;14.43;;;;;;;8.75;37.92;100066.28;4346663;32;33591;-91
2021/12/14 03:24:25;;;;;;;19.50;14.73;;;;;;;8.96;37.69;100068.69;4358466;32;34099;-91
2021/12/14 03:26:54;;;;;;;20.90;14.60;;;;;;;8.89;37.92;100069.31;4345707;32;32873;-91
2021/12/14 03:29:25;;;;;;;22.05;14.77;;;;;;;8.82;37.83;100069.03;4346472;32;34529;-90
2021/12/14 03:31:56;;;;;;;21.58;14.65;;;;;;;8.73;38.31;100065.31;4360053;32;34123;-91
2021/12/14 03:34:28;;;;;;;20.17;14.18;;;;;;;8.57;38.54;100067.34;4346165;32;34212;-91
2021/12/14 03:36:59;;;;;;;21.70;14.60;;;;;;;8.48;38.66;100066.16;4360167;32;34713;-90
2021/12/14 03:39:39;;;;;;;22.58;14.77;;;;;;;8.55;38.34;100064.69;4345774;32;32279;-90
2021/12/14 03:42:12;;;;;;;20.88;14.80;;;;;;;8.61;38.23;100061.44;4331024;32;32982;-89
2021/12/14 03:44:47;;;;;;;21.33;14.10;;;;;;;8.78;37.83;100061.19;4359872;32;34288;-90
2021/12/14 03:47:24;;;;;;;21.17;14.52;;;;;;;8.61;37.91;100058.88;4346461;32;34070;-89
2021/12/14 03:49:55;;;;;;;21.73;14.32;;;;;;;8.65;37.84;100060.72;4346016;32;34498;-90
2021/12/14 03:52:26;;;;;;;21.87;14.70;;;;;;;8.36;38.50;100062.25;4359732;32;33630;-90
2021/12/14 03:54:56;;;;;;;25.50;15.63;;;;;;;8.49;38.43;100048.97;4342200;33;34271;-89
2021/12/14 03:57:24;;;;;;;21.83;14.63;;;;;;;8.68;38.10;100053.97;4358020;32;33820;-88
2021/12/14 03:59:52;;;;;;;22.87;15.35;;;;;;;8.46;38.32;100043.69;4356820;32;33730;-88
2021/12/14 04:02:21;;;;;;;22.30;15.23;;;;;;;8.29;38.84;100053.38;4359271;32;33537;-89
2021/12/14 04:05:01;;;;;;;22.50;14.73;;;;;;;8.44;38.68;100055.66;4331497;33;33414;-89
2021/12/14 04:07:31;;;;;;;24.30;15.07;;;;;;;8.58;38.50;100062.22;4339466;32;33940;-90
2021/12/14 04:10:00;;;;;;;24.95;16.25;;;;;;;8.32;38.72;100056.09;4328956;32;33042;-91
2021/12/14 04:12:28;;;;;;;21.67;15.15;;;;;;;8.38;38.78;100060.63;4344968;32;34025;-91
2021/12/14 04:14:57;;;;;;;22.05;15.90;;;;;;;8.14;39.19;100055.41;4358539;32;34986;-90
2021/12/14 04:17:28;;;;;;;24.20;16.25;;;;;;;8.46;38.75;100057.50;4333760;32;31776;-90
2021/12/14 04:19:57;;;;;;;25.12;16.45;;;;;;;8.25;39.15;100060.13;4359147;32;33419;-90
2021/12/14 04:22:28;;;;;;;25.85;17.02;;;;;;;8.36;39.00;100057.94;4358954;32;34804;-90
2021/12/14 04:24:59;;;;;;;24.95;15.75;;;;;;;8.33;39.00;100063.00;4345134;32;34687;-89
2021/12/14 04:27:29;;;;;;;23.30;14.70;;;;;;;8.52;38.88;100055.13;4359218;32;34337;-89
2021/12/14 04:30:00;;;;;;;22.15;15.18;;;;;;;8.35;38.89;100055.31;4332591;32;32996;-89
2021/12/14 04:32:28;;;;;;;24.25;15.35;;;;;;;8.27;38.94;100058.50;4359214;32;33763;-90
2021/12/14 04:34:56;;;;;;;23.87;15.85;;;;;;;7.59;40.10;100056.81;4359256;32;34778;-90
2021/12/14 04:37:24;;;;;;;22.00;15.55;;;;;;;7.76;40.32;100058.31;4359426;32;33958;-90
2021/12/14 04:39:59;;;;;;;25.35;16.77;;;;;;;7.53;41.13;100057.44;4333233;32;33075;-90
2021/12/14 04:53:50;;;;;;;25.10;16.75;;;;;;;8.04;41.54;100054.22;4357946;32;34744;-89
2021/12/14 04:56:23;;;;;;;23.10;17.03;;;;;;;8.15;41.05;100058.06;4331441;32;33227;-90
2021/12/14 04:59:09;;;;;;;24.17;17.00;;;;;;;8.46;40.59;100057.50;4358470;32;34156;-88
2021/12/14 05:01:39;;;;;;;21.52;16.33;;;;;;;8.61;39.95;100054.56;4357388;32;33251;-90
2021/12/14 05:04:11;;;;;;;22.45;15.20;;;;;;;8.46;40.06;100060.06;4347702;32;34752;-90
2021/12/14 05:06:53;;;;;;;21.05;14.75;;;;;;;8.23;40.42;100051.47;4347105;32;34132;-90
2021/12/14 05:09:27;;;;;;;24.70;15.98;;;;;;;8.37;40.33;100064.00;4360807;32;34825;-90
2021/12/14 05:12:00;;;;;;;22.67;15.77;;;;;;;8.27;40.33;100062.81;4346796;32;33934;-89
2021/12/14 05:14:33;;;;;;;22.77;14.40;;;;;;;8.63;39.57;100060.66;4359036;32;34608;-89
2021/12/14 05:17:05;;;;;;;24.20;15.60;;;;;;;8.44;39.58;100055.66;4359832;32;34169;-90
2021/12/14 05:19:34;;;;;;;22.87;15.55;;;;;;;8.81;39.00;100062.12;4347243;32;35011;-90
2021/12/14 05:22:12;;;;;;;23.20;14.90;;;;;;;8.34;39.66;100069.06;4357667;32;34815;-88
2021/12/14 05:24:43;;;;;;;24.63;16.25;;;;;;;8.41;39.45;100073.66;4343544;32;34860;-90
2021/12/14 05:27:16;;;;;;;23.02;15.85;;;;;;;8.35;39.74;100083.75;4360451;32;34186;-90
2021/12/14 05:29:44;;;;;;;23.25;16.23;;;;;;;8.67;39.18;100074.56;4357088;32;33820;-90
2021/12/14 05:32:15;;;;;;;20.50;15.00;;;;;;;8.55;39.24;100075.03;4354737;32;34363;-89
2021/12/14 05:34:46;;;;;;;23.50;16.25;;;;;;;8.47;38.92;100072.16;4360307;32;34061;-89
2021/12/14 05:37:19;;;;;;;27.67;18.02;;;;;;;8.76;38.30;100074.91;4345181;32;34530;-90
2021/12/14 05:39:57;;;;;;;26.50;17.27;;;;;;;8.48;38.64;100080.78;4338041;33;34947;-91
2021/12/14 05:45:19;;;;;;;47.08;36.42;;;;;;;8.39;38.94;100068.44;4331224;32;34059;-90
2021/12/14 05:47:51;;;;;;;37.72;25.40;;;;;;;8.74;38.25;100077.41;4335291;32;34210;-89
2021/12/14 05:50:33;;;;;;;31.17;23.08;;;;;;;8.62;38.34;100079.59;4360825;32;34064;-91
2021/12/14 05:53:01;;;;;;;27.65;19.37;;;;;;;8.79;37.98;100080.19;4347538;32;33661;-90
2021/12/14 05:55:33;;;;;;;35.47;24.85;;;;;;;9.24;36.72;100078.25;4355850;32;33884;-89
2021/12/14 05:58:21;;;;;;;45.40;30.12;;;;;;;7.99;38.92;100086.72;4349031;32;34121;-89
2021/12/14 06:00:54;;;;;;;46.45;32.97;;;;;;;6.83;41.76;100099.28;4345381;32;34061;-90
2021/12/14 06:03:26;;;;;;;39.08;28.38;;;;;;;7.76;39.87;100093.56;4347511;32;33646;-90
2021/12/14 06:05:54;;;;;;;42.45;29.80;;;;;;;7.75;39.75;100092.69;4347143;32;34002;-90
2021/12/14 06:08:26;;;;;;;41.92;30.70;;;;;;;7.47;40.19;100090.75;4332472;32;33368;-91
2021/12/14 06:10:55;;;;;;;39.20;27.35;;;;;;;7.88;39.35;100085.41;4335031;32;34492;-91
2021/12/14 06:13:43;;;;;;;41.65;29.40;;;;;;;7.75;39.51;100087.53;4347522;32;33515;-91
2021/12/14 06:16:34;;;;;;;37.58;25.30;;;;;;;7.92;38.90;100087.31;4347490;32;34776;-89
2021/12/14 06:19:28;;;;;;;41.42;28.40;;;;;;;8.02;38.82;100097.16;4354314;32;35364;-90
2021/12/14 06:22:11;;;;;;;40.08;28.27;;;;;;;7.69;39.71;100104.47;4342995;32;33752;-90
2021/12/14 06:24:56;;;;;;;40.08;28.67;;;;;;;8.03;39.09;100093.75;4369256;32;33013;-90
2021/12/14 06:27:27;;;;;;;39.10;27.87;;;;;;;7.91;39.35;100101.03;4342989;32;33534;-87
2021/12/14 06:29:59;;;;;;;40.17;27.45;;;;;;;8.10;38.88;100100.03;4357405;32;33764;-89
2021/12/14 06:32:31;;;;;;;34.83;24.58;;;;;;;8.09;38.86;100096.56;4347548;32;34203;-89
2021/12/14 06:35:05;;;;;;;34.50;24.10;;;;;;;8.33;38.51;100104.34;4360735;32;33785;-89
2021/12/14 06:38:09;;;;;;;35.35;24.37;;;;;;;8.35;37.95;100091.50;4334845;32;33321;-92
2021/12/14 06:40:44;;;;;;;31.27;22.30;;;;;;;8.21;38.27;100096.16;4336627;32;35009;-93
2021/12/14 06:43:35;;;;;;;30.00;19.92;;;;;;;7.92;38.69;100092.50;4347191;32;34384;-93
2021/12/14 06:46:08;;;;;;;28.02;20.17;;;;;;;7.92;38.88;100092.50;4353974;32;33370;-92
2021/12/14 06:48:40;;;;;;;28.48;19.98;;;;;;;7.55;39.95;100103.97;4347912;32;34591;-93
2021/12/14 06:51:11;;;;;;;28.65;17.87;;;;;;;8.06;39.54;100101.63;4335594;32;34322;-93
2021/12/14 06:53:40;;;;;;;24.87;16.12;;;;;;;8.11;39.28;100102.69;4361307;32;35077;-93
2021/12/14 06:56:11;;;;;;;25.02;17.60;;;;;;;7.85;39.73;100101.69;4336007;32;34105;-92
2021/12/14 06:59:07;;;;;;;26.23;16.95;;;;;;;7.98;39.67;100114.25;4348182;32;34208;-92
2021/12/14 07:01:40;;;;;;;25.17;16.87;;;;;;;8.04;39.62;100118.78;4346736;32;34280;-93
2021/12/14 07:04:11;;;;;;;23.98;15.80;;;;;;;8.40;38.79;100114.09;4347789;32;34845;-93
2021/12/14 07:06:42;;;;;;;22.05;16.35;;;;;;;8.50;38.57;100112.75;4361220;32;33421;-93
2021/12/14 07:09:13;;;;;;;25.73;17.65;;;;;;;8.63;38.35;100119.22;4360944;32;34390;-93
2021/12/14 07:11:46;;;;;;;26.42;18.75;;;;;;;8.56;38.13;100133.66;4361435;32;34822;-93
2021/12/14 07:14:39;;;;;;;27.33;18.75;;;;;;;8.50;38.49;100118.78;4347152;32;34039;-94
2021/12/14 07:17:16;;;;;;;26.23;19.77;;;;;;;8.53;38.61;100116.31;4360598;32;34526;-93
2021/12/14 07:19:55;;;;;;;38.30;26.83;;;;;;;8.74;38.43;100116.19;4346906;32;33294;-93
2021/12/14 07:22:24;;;;;;;28.98;21.00;;;;;;;7.97;39.71;100135.72;4359996;32;34001;-93
2021/12/14 07:25:09;;;;;;;31.17;22.08;;;;;;;8.11;39.55;100132.81;4334295;32;33862;-93
2021/12/14 07:27:38;;;;;;;38.33;27.10;;;;;;;8.48;39.03;100135.06;4346842;32;33075;-93
2021/12/14 07:30:12;;;;;;;34.72;24.83;;;;;;;8.11;39.60;100133.69;4334572;32;32533;-93
2021/12/14 07:32:47;;;;;;;31.35;22.58;;;;;;;8.56;38.77;100138.84;4334722;32;33312;-93
2021/12/14 07:35:20;;;;;;;30.95;22.05;;;;;;;8.54;38.78;100140.47;4334545;32;34178;-93
2021/12/14 07:37:48;;;;;;;31.30;21.20;;;;;;;8.83;38.13;100138.06;4360432;32;33130;-94
2021/12/14 07:40:16;;;;;;;30.70;21.83;;;;;;;8.44;38.85;100139.25;4334983;32;33786;-93
2021/12/14 07:42:44;;;;;;;27.40;19.55;;;;;;;8.40;39.27;100146.81;4347004;32;34331;-93
2021/12/14 07:45:22;;;;;;;24.23;19.08;;;;;;;8.57;39.24;100139.72;4322933;32;33360;-94
2021/12/14 07:47:54;;;;;;;25.50;17.15;;;;;;;8.73;38.83;100137.72;4346813;32;33212;-93
2021/12/14 07:50:36;;;;;;;27.52;19.62;;;;;;;8.50;39.50;100129.13;4347159;32;34783;-94
2021/12/14 07:53:04;;;;;;;25.65;16.92;;;;;;;8.36;40.16;100129.41;4346826;32;33641;-93
2021/12/14 07:55:38;;;;;;;26.45;17.52;;;;;;;8.31;40.56;100128.37;4334893;32;32804;-93
2021/12/14 07:58:05;;;;;;;25.60;17.05;;;;;;;8.45;40.50;100122.06;4334676;32;31984;-93
2021/12/14 08:00:39;;;;;;;20.00;14.73;;;;;;;8.25;40.77;100129.88;4334101;32;32788;-93
2021/12/14 08:03:09;;;;;;;17.65;11.85;;;;;;;8.34;41.09;100128.50;4346570;32;33876;-93
2021/12/14 08:05:41;;;;;;;16.05;11.00;;;;;;;8.70;40.91;100128.97;4360412;32;33774;-93
2021/12/14 08:08:17;;;;;;;16.37;11.50;;;;;;;8.80;40.57;100131.06;4334909;32;33260;-93
2021/12/14 08:11:08;;;;;;;25.10;16.83;;;;;;;8.68;40.82;100128.06;4335151;32;34673;-93
2021/12/14 08:13:48;;;;;;;18.12;12.32;;;;;;;8.92;41.22;100139.25;4348146;32;33587;-94
2021/12/14 08:16:15;;;;;;;17.25;11.60;;;;;;;8.55;41.63;100137.03;4334091;32;32821;-94
2021/12/14 08:18:44;;;;;;;27.20;16.62;;;;;;;8.84;41.36;100140.69;4334381;32;33715;-93
2021/12/14 08:21:20;;;;;;;32.63;21.35;;;;;;;8.84;41.45;100142.41;4334213;32;33505;-93
2021/12/14 08:24:04;;;;;;;32.55;21.70;;;;;;;9.06;41.22;100134.56;4346050;32;34971;-94
2021/12/14 08:26:43;;;;;;;44.55;25.17;;;;;;;9.23;41.03;100133.41;4334242;32;34537;-93
2021/12/14 08:29:18;;;;;;;40.20;26.17;;;;;;;9.37;40.67;100133.00;4333910;32;33971;-93
2021/12/14 08:32:05;;;;;;;42.08;24.37;;;;;;;9.16;41.17;100130.56;4334068;32;33833;-93
2021/12/14 08:34:36;;;;;;;38.13;23.62;;;;;;;9.32;40.91;100134.53;4347236;32;33844;-94
2021/12/14 08:37:35;;;;;;;38.10;24.80;;;;;;;9.31;40.74;100140.53;4327647;32;33760;-93
2021/12/14 08:40:10;;;;;;;42.95;26.10;;;;;;;9.42;40.70;100131.44;4347931;32;33424;-93
2021/12/14 08:42:53;;;;;;;38.88;27.60;;;;;;;9.29;40.95;100137.91;4335559;32;33162;-93
2021/12/14 08:45:27;;;;;;;41.78;29.10;;;;;;;9.21;41.14;100142.84;4349163;32;33826;-93
2021/12/14 08:47:57;;;;;;;43.47;30.35;;;;;;;9.52;40.75;100133.50;4336084;32;34765;-94
2021/12/14 08:50:25;;;;;;;42.72;30.35;;;;;;;9.15;41.36;100139.16;4335882;32;33269;-93
2021/12/14 08:52:54;;;;;;;41.17;29.75;;;;;;;9.45;41.28;100141.87;4335707;32;33674;-93
2021/12/14 08:55:24;;;;;;;41.72;30.33;;;;;;;9.04;41.75;100143.97;4335781;32;33178;-93
2021/12/14 08:57:52;;;;;;;46.63;31.85;;;;;;;9.26;41.68;100145.56;4348015;32;34109;-93
2021/12/14 09:00:28;;;;;;;51.97;36.63;;;;;;;9.46;41.21;100148.81;4347717;32;34464;-92
2021/12/14 09:02:59;;;;;;;;;;;;;;;8.56;43.59;100144.00;4323839;32;34209;-93
2021/12/14 09:05:32;;;;;;;55.00;39.03;;;;;;;9.20;42.47;100143.62;4323976;32;34272;-93
2021/12/14 09:08:02;;;;;;;58.90;40.00;;;;;;;9.53;41.80;100139.53;4335592;32;34257;-93
2021/12/14 09:10:32;;;;;;;55.42;36.45;;;;;;;9.79;41.37;100132.63;4361461;32;33451;-93
2021/12/14 09:13:04;;;;;;;57.95;39.63;;;;;;;9.47;41.92;100132.44;4335552;32;33708;-93
2021/12/14 09:15:45;;;;;;;60.47;39.63;;;;;;;9.70;41.49;100128.91;4335265;32;33316;-93
2021/12/14 09:18:15;;;;;;;59.88;39.42;;;;;;;9.59;41.88;100125.09;4335344;32;33463;-92
2021/12/14 09:21:15;;;;;;;52.22;36.03;;;;;;;9.08;43.18;100130.31;4323484;32;32932;-93
2021/12/14 09:23:47;;;;;;;56.20;39.97;;;;;;;9.32;42.78;100139.72;4347344;32;33888;-93
2021/12/14 09:26:21;;;;;;;57.53;39.92;;;;;;;9.47;42.84;100135.03;4335414;32;33324;-93
2021/12/14 09:28:49;;;;;;;55.28;38.95;;;;;;;9.74;42.10;100133.34;4347787;32;34078;-93
2021/12/14 09:31:21;;;;;;;55.83;40.47;;;;;;;9.67;42.08;100133.13;4323534;32;32563;-93
2021/12/14 09:33:52;;;;;;;54.75;39.15;;;;;;;9.51;42.66;100131.75;4335338;32;32915;-93
2021/12/14 09:36:19;;;;;;;56.70;39.50;;;;;;;9.49;42.97;100138.56;4347451;32;33997;-93
2021/12/14 09:38:54;;;;;;;56.88;38.35;;;;;;;9.53;42.87;100131.78;4335285;32;34376;-93
2021/12/14 09:41:31;;;;;;;59.28;38.45;;;;;;;9.60;42.93;100125.97;4361284;32;33450;-93
2021/12/14 09:44:00;;;;;;;56.10;38.10;;;;;;;9.86;42.58;100124.22;4327312;32;197236;-93
2021/12/14 09:46:28;;;;;;;56.92;37.20;;;;;;;9.86;42.51;100126.81;4312688;32;32606;-93
2021/12/14 09:49:00;;;;;;;54.03;35.83;;;;;;;9.33;43.68;100121.66;4334844;32;33038;-93
2021/12/14 09:51:31;;;;;;;59.13;35.17;;;;;;;9.00;44.63;100126.56;4347557;32;34023;-92
2021/12/14 09:54:03;;;;;;;62.75;31.33;;;;;;;8.75;45.45;100123.16;4323408;32;33289;-92
2021/12/14 09:56:36;;;;;;;43.25;29.77;;;;;;;9.21;44.33;100127.31;4335216;32;34010;-93
2021/12/14 09:59:05;;;;;;;40.97;26.08;;;;;;;8.55;45.83;100124.13;4334889;32;33972;-92
2021/12/14 10:02:03;;;;;;;37.88;26.15;;;;;;;9.17;43.98;100117.69;4347185;32;33339;-92
2021/12/14 10:04:39;;;;;;;35.55;25.05;;;;;;;8.91;45.41;100113.34;4346673;32;34326;-92
2021/12/14 10:07:08;;;;;;;;;;;;;;;9.00;45.19;100113.66;4335527;32;33457;-92
2021/12/14 10:09:43;;;;;;;43.80;27.65;;;;;;;8.52;46.58;100117.16;4323390;32;33572;-92
2021/12/14 10:12:39;;;;;;;42.95;27.08;;;;;;;9.14;43.89;100115.00;4323119;32;32975;-92
2021/12/14 10:15:21;;;;;;;39.45;27.27;;;;;;;9.20;44.33;100110.00;4347074;32;32373;-92
2021/12/14 10:17:49;;;;;;;42.83;27.67;;;;;;;9.16;44.59;100109.84;4335140;32;33491;-93
2021/12/14 10:20:34;;;;;;;41.47;29.08;;;;;;;9.58;43.83;100097.44;4335079;32;32685;-92
2021/12/14 10:23:04;;;;;;;41.60;27.80;;;;;;;9.89;42.70;100095.81;4323096;32;33247;-93
2021/12/14 10:25:32;;;;;;;38.95;26.02;;;;;;;9.71;42.87;100099.59;4335150;32;34111;-92
2021/12/14 10:28:00;;;;;;;37.80;26.65;;;;;;;9.74;43.31;100094.50;4334873;32;34872;-92
2021/12/14 10:30:59;;;;;;;40.88;27.25;;;;;;;9.95;42.93;100090.81;4347213;32;33808;-92
2021/12/14 10:33:28;;;;;;;40.63;26.75;;;;;;;9.40;44.50;100094.28;4334557;32;33332;-92
2021/12/14 10:36:02;;;;;;;38.40;25.37;;;;;;;9.73;43.93;100092.72;4335122;32;33670;-92
2021/12/14 10:38:40;;;;;;;42.45;26.00;;;;;;;9.57;43.86;100087.91;4346920;32;32583;-92
2021/12/14 10:44:00;;;;;;;39.67;24.23;;;;;;;9.73;43.15;100095.31;4336673;32;32932;-92
2021/12/14 10:46:32;;;;;;;36.38;24.60;;;;;;;9.17;44.30;100099.59;4334882;32;32614;-92
2021/12/14 10:49:01;;;;;;;34.08;23.05;;;;;;;9.71;43.41;100093.53;4334915;32;34357;-92
2021/12/14 10:51:33;;;;;;;31.70;21.45;;;;;;;9.81;43.14;100089.50;4334963;32;32527;-92
2021/12/14 10:54:02;;;;;;;35.97;22.27;;;;;;;9.73;43.37;100091.84;4347255;32;33227;-92
2021/12/14 10:56:54;;;;;;;35.45;22.98;;;;;;;9.87;42.36;100092.28;4335832;32;33802;-92
2021/12/14 10:59:26;;;;;;;31.08;21.58;;;;;;;10.42;41.45;100088.75;4347222;32;35028;-92
2021/12/14 11:01:54;;;;;;;33.25;20.48;;;;;;;10.06;42.42;100089.41;4347164;32;34763;-92
2021/12/14 11:04:33;;;;;;;32.55;20.70;;;;;;;10.26;42.33;100091.72;4347201;32;33435;-93
2021/12/14 11:07:02;;;;;;;31.40;21.95;;;;;;;10.31;42.17;100090.16;4347703;32;34764;-92
2021/12/14 11:09:41;;;;;;;30.83;20.60;;;;;;;9.67;42.54;100097.75;4335049;32;32550;-92
2021/12/14 11:12:26;;;;;;;33.35;20.83;;;;;;;10.08;42.76;100090.34;4334272;32;33854;-91
2021/12/14 11:15:08;;;;;;;30.48;20.08;;;;;;;10.58;41.77;100077.09;4334757;32;33117;-92
2021/12/14 11:20:32;;;;;;;34.22;21.90;;;;;;;10.21;42.33;100079.50;4336543;32;32374;-92
2021/12/14 11:23:12;;;;;;;36.60;22.62;;;;;;;9.70;43.31;100076.25;4334984;32;33581;-92
2021/12/14 11:25:51;;;;;;;38.92;23.73;;;;;;;9.90;43.36;100079.44;4346648;32;33480;-92
2021/12/14 11:28:25;;;;;;;35.08;23.50;;;;;;;9.69;43.73;100080.53;4334638;32;32957;-92
2021/12/14 11:30:53;;;;;;;32.70;22.13;;;;;;;9.67;44.42;100087.38;4334532;32;34475;-92
2021/12/14 11:33:31;;;;;;;35.28;23.48;;;;;;;10.12;43.08;100081.81;4360273;32;35041;-92
2021/12/14 11:36:05;;;;;;;40.12;23.58;;;;;;;8.37;46.72;100085.59;4346874;32;33675;-92
2021/12/14 11:38:32;;;;;;;30.92;20.70;;;;;;;9.29;44.98;100077.53;4334363;32;34153;-92
2021/12/14 11:41:23;;;;;;;33.15;21.52;;;;;;;9.92;43.65;100076.03;4334274;32;34032;-93
2021/12/14 11:44:02;;;;;;;34.17;21.77;;;;;;;9.99;43.72;100077.09;4326606;32;32704;-92
2021/12/14 11:46:31;;;;;;;33.95;21.02;;;;;;;9.67;44.44;100070.97;4346819;32;33758;-92
2021/12/14 11:49:03;;;;;;;34.95;21.50;;;;;;;10.17;43.09;100074.19;4334375;32;32680;-92
2021/12/14 11:51:32;;;;;;;34.08;21.75;;;;;;;10.02;43.51;100066.84;4334911;32;34898;-93
2021/12/14 11:54:00;;;;;;;34.58;22.75;;;;;;;10.14;43.17;100067.19;4346421;32;34600;-93
2021/12/14 11:56:31;;;;;;;35.60;21.08;;;;;;;10.23;42.99;100067.47;4346593;32;32681;-92
2021/12/14 11:59:03;;;;;;;32.67;19.73;;;;;;;9.83;43.87;100061.94;4346653;32;33955;-93
2021/12/14 12:01:32;;;;;;;34.65;21.55;;;;;;;9.55;45.00;100074.06;4334274;32;32950;-92
2021/12/14 12:04:13;;;;;;;34.40;22.27;;;;;;;9.84;44.30;100068.88;4359986;32;34213;-92
2021/12/14 12:09:56;;;;;;;31.00;20.65;;;;;;;10.69;42.47;100063.56;4348074;32;33227;-92
2021/12/14 12:12:32;;;;;;;30.67;20.05;;;;;;;10.84;42.05;100054.44;4350194;32;33440;-92
2021/12/14 12:15:09;;;;;;;30.55;19.05;;;;;;;11.23;41.08;100058.88;4326744;32;34470;-92
2021/12/14 12:17:43;;;;;;;30.10;18.58;;;;;;;11.00;41.86;100061.78;4350934;32;33206;-92
2021/12/14 12:20:28;;;;;;;31.02;19.20;;;;;;;11.11;41.33;100055.13;4350481;32;32925;-93